Time;durP1;ratioP1;P1;durP2;ratioP2;P2;SDS_P1;SDS_P2;PMS_P1;PMS_P2;Temp;Humidity;BMP_temperature;BMP_pressure;BME280_temperature;BME280_humidity;BME280_pressure;Samples;Min_cycle;Max_cycle;Signal;HPM_P1;HPM_P2
2021/07/14 00:00:24;;;;;;;;;;;20.10;91.70;;;;;;5094115;28;19903;-47
2021/07/14 00:02:50;;;;;;;;;;;20.10;92.00;;;;;;5093775;28;19951;-46
2021/07/14 00:05:17;;;;;;;;;;;20.00;92.30;;;;;;5093992;28;19904;-48
2021/07/14 00:07:43;;;;;;;;;;;20.00;92.60;;;;;;5094007;28;19998;-47
2021/07/14 00:10:09;;;;;;;;;;;20.10;91.90;;;;;;5093629;28;19950;-46
2021/07/14 00:12:44;;;;;;;;;;;20.10;91.90;;;;;;5093607;28;20363;-46
2021/07/14 00:23:09;;;;;;;;;;;19.90;92.50;;;;;;5094227;28;19930;-49
2021/07/14 00:25:36;;;;;;;;;;;19.80;92.60;;;;;;5093546;28;19904;-46
2021/07/14 00:28:02;;;;;;;;;;;19.70;92.90;;;;;;5093719;28;19958;-47
2021/07/14 00:30:29;;;;;;;;;;;19.70;93.00;;;;;;5093805;28;19908;-48
2021/07/14 00:32:55;;;;;;;;;;;19.70;93.10;;;;;;5093460;28;20264;-47
2021/07/14 00:35:21;;;;;;;;;;;19.70;93.30;;;;;;5093434;28;19920;-48
2021/07/14 00:37:46;;;;;;;;;;;19.60;93.40;;;;;;5093416;28;19970;-51
2021/07/14 00:40:12;;;;;;;;;;;19.70;93.50;;;;;;5093663;28;19904;-46
2021/07/14 00:42:39;;;;;;;;;;;19.70;93.30;;;;;;5093950;28;20271;-46
2021/07/14 00:45:05;;;;;;;;;;;19.70;93.00;;;;;;5093356;28;19998;-48
2021/07/14 00:47:32;;;;;;;;;;;19.60;93.20;;;;;;5093162;28;19908;-47
2021/07/14 00:49:58;;;;;;;;;;;19.60;93.20;;;;;;5093614;28;19952;-48
2021/07/14 00:52:24;;;;;;;;;;;19.60;93.30;;;;;;5095393;28;19912;-49
2021/07/14 00:54:50;;;;;;;;;;;19.60;93.40;;;;;;5078883;28;19911;-49
2021/07/14 00:57:18;;;;;;;;;;;19.60;93.50;;;;;;5097024;28;20021;-48
2021/07/14 00:59:44;;;;;;;;;;;19.50;93.30;;;;;;5096742;28;19904;-49
2021/07/14 01:02:10;;;;;;;;;;;19.50;93.30;;;;;;5096748;28;20372;-52
2021/07/14 01:04:38;;;;;;;;;;;19.50;93.50;;;;;;5096678;28;19930;-47
2021/07/14 01:07:22;;;;;;;;;;;19.50;93.80;;;;;;5096871;28;19958;-49
2021/07/14 01:09:52;;;;;;;;;;;19.60;93.50;;;;;;5096561;28;19908;-49
2021/07/14 01:12:25;;;;;;;;;;;19.60;93.30;;;;;;5096734;28;19907;-50
2021/07/14 01:15:02;;;;;;;;;;;19.50;93.60;;;;;;5096454;28;19915;-48
2021/07/14 01:17:28;;;;;;;;;;;19.60;93.80;;;;;;5097165;28;19903;-49
2021/07/14 01:20:04;;;;;;;;;;;19.70;93.10;;;;;;5096547;28;19904;-51
2021/07/14 01:22:36;;;;;;;;;;;19.60;93.20;;;;;;5096561;28;19904;-47
2021/07/14 01:25:22;;;;;;;;;;;19.60;93.40;;;;;;5096545;28;20306;-49
2021/07/14 01:27:48;;;;;;;;;;;19.60;93.00;;;;;;5096854;28;19903;-49
2021/07/14 01:30:15;;;;;;;;;;;19.60;93.10;;;;;;5096752;28;19927;-50
2021/07/14 01:32:42;;;;;;;;;;;19.60;92.90;;;;;;5096356;28;20016;-47
2021/07/14 01:35:13;;;;;;;;;;;19.50;92.80;;;;;;5095868;28;19916;-48
2021/07/14 01:37:41;;;;;;;;;;;19.40;93.20;;;;;;5096514;28;19958;-50
2021/07/14 01:40:07;;;;;;;;;;;19.40;93.50;;;;;;5096188;28;20006;-52
2021/07/14 01:42:33;;;;;;;;;;;19.50;93.60;;;;;;5096220;28;20419;-48
2021/07/14 01:45:00;;;;;;;;;;;19.60;93.40;;;;;;5096661;28;19944;-51
2021/07/14 01:47:26;;;;;;;;;;;19.60;93.40;;;;;;5096040;28;19930;-49
2021/07/14 01:49:53;;;;;;;;;;;19.50;93.20;;;;;;5096300;28;19915;-49
2021/07/14 01:52:20;;;;;;;;;;;19.60;93.30;;;;;;5096157;28;19957;-46
2021/07/14 01:54:47;;;;;;;;;;;19.50;93.20;;;;;;5096167;28;19911;-52
2021/07/14 01:57:13;;;;;;;;;;;19.60;93.20;;;;;;5096153;28;20241;-47
2021/07/14 01:59:39;;;;;;;;;;;19.50;93.50;;;;;;5096098;28;19911;-48
2021/07/14 02:02:06;;;;;;;;;;;19.60;93.30;;;;;;5077751;28;19904;-50
2021/07/14 02:04:33;;;;;;;;;;;19.50;93.30;;;;;;5095310;28;19911;-47
2021/07/14 02:07:07;;;;;;;;;;;19.60;93.40;;;;;;5077553;28;20275;-50
2021/07/14 02:09:33;;;;;;;;;;;19.50;93.50;;;;;;5095570;28;19995;-52
2021/07/14 02:12:00;;;;;;;;;;;19.60;93.20;;;;;;5096014;28;19904;-47
2021/07/14 02:14:46;;;;;;;;;;;19.60;93.30;;;;;;5095668;28;19908;-50
2021/07/14 02:17:16;;;;;;;;;;;19.60;93.40;;;;;;5095203;28;19912;-50
2021/07/14 02:19:44;;;;;;;;;;;19.50;93.60;;;;;;5096464;28;19939;-51
2021/07/14 02:22:10;;;;;;;;;;;19.60;93.40;;;;;;5096145;28;19904;-51
2021/07/14 02:24:35;;;;;;;;;;;19.60;93.30;;;;;;5095707;28;19904;-49
2021/07/14 02:27:06;;;;;;;;;;;19.60;93.30;;;;;;5077308;28;19915;-46
2021/07/14 02:29:38;;;;;;;;;;;19.60;93.20;;;;;;5077271;28;19962;-48
2021/07/14 02:32:04;;;;;;;;;;;19.70;93.40;;;;;;5095312;28;19939;-46
2021/07/14 02:34:30;;;;;;;;;;;19.70;93.30;;;;;;5095058;28;19924;-48
2021/07/14 02:36:57;;;;;;;;;;;19.60;93.00;;;;;;5095390;28;19904;-47
2021/07/14 02:39:22;;;;;;;;;;;19.50;93.60;;;;;;5076775;28;19911;-49
2021/07/14 02:41:53;;;;;;;;;;;19.60;93.50;;;;;;5095526;28;19904;-49
2021/07/14 02:44:20;;;;;;;;;;;19.60;93.30;;;;;;5094861;28;19908;-50
2021/07/14 02:46:48;;;;;;;;;;;19.50;93.50;;;;;;5095990;28;19904;-50
2021/07/14 02:49:17;;;;;;;;;;;19.60;93.40;;;;;;5094759;28;19908;-48
2021/07/14 02:51:44;;;;;;;;;;;19.60;93.40;;;;;;5076628;28;19904;-47
2021/07/14 02:54:12;;;;;;;;;;;19.70;93.30;;;;;;5094943;28;19907;-51
2021/07/14 02:56:39;;;;;;;;;;;19.50;93.50;;;;;;5094953;28;19904;-47
2021/07/14 02:59:07;;;;;;;;;;;19.60;93.30;;;;;;5094687;28;19904;-47
2021/07/14 03:01:34;;;;;;;;;;;19.60;93.20;;;;;;5094881;28;19908;-48
2021/07/14 03:04:00;;;;;;;;;;;19.50;93.50;;;;;;5094923;28;19982;-48
2021/07/14 03:06:30;;;;;;;;;;;19.60;93.30;;;;;;5094629;28;20279;-48
2021/07/14 03:09:03;;;;;;;;;;;19.60;93.40;;;;;;5094593;28;20270;-48
2021/07/14 03:11:28;;;;;;;;;;;19.60;93.00;;;;;;5076250;28;19904;-48
2021/07/14 03:13:54;;;;;;;;;;;19.40;93.50;;;;;;5094400;28;20256;-47
2021/07/14 03:16:20;;;;;;;;;;;19.50;93.40;;;;;;5075333;28;19911;-47
2021/07/14 03:18:50;;;;;;;;;;;19.60;93.40;;;;;;5094571;28;19904;-47
2021/07/14 03:21:16;;;;;;;;;;;19.50;93.40;;;;;;5094468;28;20363;-46
2021/07/14 03:23:42;;;;;;;;;;;19.50;93.50;;;;;;5094264;28;19912;-47
2021/07/14 03:26:08;;;;;;;;;;;19.50;93.50;;;;;;5094467;28;19911;-48
2021/07/14 03:28:36;;;;;;;;;;;19.50;93.70;;;;;;5076026;28;19904;-48
2021/07/14 03:31:02;;;;;;;;;;;19.60;93.60;;;;;;5094170;28;20367;-51
2021/07/14 03:33:31;;;;;;;;;;;19.60;93.40;;;;;;5094035;28;19947;-48
2021/07/14 03:35:58;;;;;;;;;;;19.60;93.50;;;;;;5093809;28;20329;-49
2021/07/14 03:38:25;;;;;;;;;;;19.60;93.50;;;;;;5093726;28;20366;-48
2021/07/14 03:40:51;;;;;;;;;;;19.50;93.50;;;;;;5093759;28;19942;-48
2021/07/14 03:43:17;;;;;;;;;;;19.50;93.50;;;;;;5093594;28;19912;-47
2021/07/14 03:45:43;;;;;;;;;;;19.70;93.30;;;;;;5093693;28;20267;-49
2021/07/14 03:48:16;;;;;;;;;;;19.50;93.30;;;;;;5093856;28;19950;-48
2021/07/14 03:50:41;;;;;;;;;;;19.50;93.80;;;;;;5094470;28;19912;-48
2021/07/14 03:53:07;;;;;;;;;;;19.60;93.50;;;;;;5093462;28;20249;-47
2021/07/14 03:55:33;;;;;;;;;;;19.60;93.60;;;;;;5093580;28;19904;-51
2021/07/14 03:57:58;;;;;;;;;;;19.50;93.60;;;;;;5093764;28;19993;-46
2021/07/14 04:00:24;;;;;;;;;;;19.50;93.60;;;;;;5093475;28;20370;-47
2021/07/14 04:02:50;;;;;;;;;;;19.60;93.70;;;;;;5076199;28;19965;-48
2021/07/14 04:05:16;;;;;;;;;;;19.60;93.70;;;;;;5075312;28;19904;-47
2021/07/14 04:07:43;;;;;;;;;;;19.60;93.60;;;;;;5093780;28;19957;-47
2021/07/14 04:10:09;;;;;;;;;;;19.60;93.60;;;;;;5093362;28;19904;-47
2021/07/14 04:12:34;;;;;;;;;;;19.60;93.80;;;;;;5093580;28;19930;-48
2021/07/14 04:15:00;;;;;;;;;;;19.60;93.20;;;;;;5093221;28;19904;-51
2021/07/14 04:17:26;;;;;;;;;;;19.60;93.50;;;;;;5093190;28;19951;-48
2021/07/14 04:19:51;;;;;;;;;;;19.60;93.50;;;;;;5093354;28;19904;-47
2021/07/14 04:22:17;;;;;;;;;;;19.60;93.70;;;;;;5093456;28;20427;-48
2021/07/14 04:24:42;;;;;;;;;;;19.70;93.70;;;;;;5093159;28;19998;-51
2021/07/14 04:27:08;;;;;;;;;;;19.70;93.40;;;;;;5094932;28;19904;-47
2021/07/14 04:29:34;;;;;;;;;;;19.60;93.80;;;;;;5097983;28;19915;-47
2021/07/14 04:32:00;;;;;;;;;;;19.50;93.70;;;;;;5097217;28;19904;-49
2021/07/14 04:34:26;;;;;;;;;;;19.60;93.90;;;;;;5097002;28;19969;-52
2021/07/14 04:36:52;;;;;;;;;;;19.60;93.80;;;;;;5097440;28;19904;-47
2021/07/14 04:39:17;;;;;;;;;;;19.60;93.60;;;;;;5097149;28;19908;-50
2021/07/14 04:41:43;;;;;;;;;;;19.60;93.40;;;;;;5096996;28;20310;-52
2021/07/14 04:44:10;;;;;;;;;;;19.60;93.50;;;;;;5078826;28;19991;-46
2021/07/14 04:46:36;;;;;;;;;;;19.70;93.30;;;;;;5097021;28;19910;-46
2021/07/14 04:49:02;;;;;;;;;;;19.60;93.50;;;;;;5096875;28;19978;-48
2021/07/14 04:51:27;;;;;;;;;;;19.60;93.70;;;;;;5096703;28;19904;-49
2021/07/14 04:53:53;;;;;;;;;;;19.60;93.60;;;;;;5096650;28;20007;-47
2021/07/14 04:56:19;;;;;;;;;;;19.60;93.70;;;;;;5096823;28;19936;-46
2021/07/14 04:58:45;;;;;;;;;;;19.50;93.90;;;;;;5097042;28;19911;-46
2021/07/14 05:01:15;;;;;;;;;;;19.60;93.70;;;;;;5078586;28;20074;-46
2021/07/14 05:03:41;;;;;;;;;;;19.50;93.90;;;;;;5096541;28;20006;-48
2021/07/14 05:06:06;;;;;;;;;;;19.50;93.90;;;;;;5078401;28;20007;-45
2021/07/14 05:08:32;;;;;;;;;;;19.50;93.80;;;;;;5096811;28;19908;-48
2021/07/14 05:10:57;;;;;;;;;;;19.50;93.80;;;;;;5096749;28;20014;-46
2021/07/14 05:13:23;;;;;;;;;;;19.60;93.90;;;;;;5078209;28;19959;-51
2021/07/14 05:15:48;;;;;;;;;;;19.60;93.70;;;;;;5096327;28;20381;-49
2021/07/14 05:18:14;;;;;;;;;;;19.50;93.90;;;;;;5096233;28;19904;-47
2021/07/14 05:20:40;;;;;;;;;;;19.50;94.00;;;;;;5096087;28;19908;-48
2021/07/14 05:23:06;;;;;;;;;;;19.50;93.90;;;;;;5096295;28;19904;-48
2021/07/14 05:25:32;;;;;;;;;;;19.50;94.10;;;;;;5096205;28;19912;-49
2021/07/14 05:27:57;;;;;;;;;;;19.50;94.00;;;;;;5095935;28;19961;-47
2021/07/14 05:30:23;;;;;;;;;;;19.50;94.00;;;;;;5096000;28;19911;-50
2021/07/14 05:32:48;;;;;;;;;;;19.60;93.90;;;;;;5096305;28;19964;-51
2021/07/14 05:35:14;;;;;;;;;;;19.60;93.80;;;;;;5095784;28;19923;-48
2021/07/14 05:37:39;;;;;;;;;;;19.60;93.40;;;;;;5096086;28;20010;-49
2021/07/14 05:40:05;;;;;;;;;;;19.50;93.90;;;;;;5095499;28;19936;-50
2021/07/14 05:42:31;;;;;;;;;;;19.50;94.00;;;;;;5095810;28;19911;-47
2021/07/14 05:44:57;;;;;;;;;;;19.50;93.80;;;;;;5095783;28;19904;-49
2021/07/14 05:47:22;;;;;;;;;;;19.60;93.80;;;;;;5096168;28;19927;-51
2021/07/14 05:49:48;;;;;;;;;;;19.60;93.90;;;;;;5096857;28;19904;-48
2021/07/14 05:52:14;;;;;;;;;;;19.70;94.00;;;;;;5096181;28;19904;-52
2021/07/14 05:54:40;;;;;;;;;;;19.70;94.00;;;;;;5096069;28;20294;-48
2021/07/14 05:57:06;;;;;;;;;;;19.70;94.10;;;;;;5095765;28;19994;-49
2021/07/14 05:59:31;;;;;;;;;;;19.80;93.80;;;;;;5096203;28;20346;-52
2021/07/14 06:01:57;;;;;;;;;;;19.80;93.70;;;;;;5078091;28;19904;-53
2021/07/14 06:04:22;;;;;;;;;;;19.80;93.70;;;;;;5095567;28;19904;-48
2021/07/14 06:06:48;;;;;;;;;;;19.80;93.50;;;;;;5077918;28;19904;-53
2021/07/14 06:09:13;;;;;;;;;;;19.80;93.30;;;;;;5095435;28;19999;-46
2021/07/14 06:11:40;;;;;;;;;;;19.70;93.40;;;;;;5095263;28;20268;-50
2021/07/14 06:14:06;;;;;;;;;;;19.70;94.00;;;;;;5095589;28;20302;-50
2021/07/14 06:16:31;;;;;;;;;;;19.70;93.60;;;;;;5096294;28;19915;-52
2021/07/14 06:18:57;;;;;;;;;;;19.70;93.80;;;;;;5095414;28;19904;-50
2021/07/14 06:21:23;;;;;;;;;;;19.70;93.90;;;;;;5095292;28;19949;-47
2021/07/14 06:23:49;;;;;;;;;;;19.80;93.90;;;;;;5095668;28;19998;-51
2021/07/14 06:26:15;;;;;;;;;;;19.70;93.90;;;;;;5077113;28;19904;-47
2021/07/14 06:28:40;;;;;;;;;;;19.70;93.80;;;;;;5095233;28;19986;-47
2021/07/14 06:31:06;;;;;;;;;;;19.80;93.70;;;;;;5095110;28;20386;-48
2021/07/14 06:33:32;;;;;;;;;;;19.70;93.60;;;;;;5095274;28;19912;-47
2021/07/14 06:35:58;;;;;;;;;;;19.70;93.80;;;;;;5094849;28;19939;-50
2021/07/14 06:38:23;;;;;;;;;;;19.70;93.70;;;;;;5095933;28;19904;-47
2021/07/14 06:40:49;;;;;;;;;;;19.70;93.80;;;;;;5097829;28;19911;-46
2021/07/14 06:43:16;;;;;;;;;;;19.70;94.00;;;;;;5095594;28;19904;-47
2021/07/14 06:45:47;;;;;;;;;;;19.70;94.00;;;;;;5076665;28;19904;-47
2021/07/14 06:48:13;;;;;;;;;;;19.70;93.90;;;;;;5095264;28;19904;-48
2021/07/14 06:50:39;;;;;;;;;;;19.50;93.90;;;;;;5094869;28;19970;-47
2021/07/14 06:53:04;;;;;;;;;;;19.50;94.40;;;;;;5076439;28;19918;-47
2021/07/14 06:55:30;;;;;;;;;;;19.60;93.90;;;;;;5094930;28;20094;-48
2021/07/14 06:57:56;;;;;;;;;;;19.70;93.90;;;;;;5094610;28;20374;-50
2021/07/14 07:00:22;;;;;;;;;;;19.60;93.90;;;;;;5094561;28;19904;-48
2021/07/14 07:02:47;;;;;;;;;;;19.50;94.20;;;;;;5094639;28;20037;-46
2021/07/14 07:05:13;;;;;;;;;;;19.50;94.40;;;;;;5076340;28;19910;-48
2021/07/14 07:07:38;;;;;;;;;;;19.50;94.50;;;;;;5094468;28;19904;-49
2021/07/14 07:10:04;;;;;;;;;;;19.50;94.60;;;;;;5094348;28;19981;-48
2021/07/14 07:12:30;;;;;;;;;;;19.60;94.30;;;;;;5094455;28;20344;-50
2021/07/14 07:14:56;;;;;;;;;;;19.70;94.10;;;;;;5093892;28;19911;-47
2021/07/14 07:17:21;;;;;;;;;;;19.80;93.90;;;;;;5093920;28;19970;-47
2021/07/14 07:19:47;;;;;;;;;;;19.80;93.30;;;;;;5093956;28;19995;-47
2021/07/14 07:22:12;;;;;;;;;;;19.80;93.40;;;;;;5094077;28;19904;-46
2021/07/14 07:24:38;;;;;;;;;;;19.80;93.40;;;;;;5094108;28;20358;-48
2021/07/14 07:27:06;;;;;;;;;;;19.70;93.50;;;;;;5093855;28;19948;-50
2021/07/14 07:29:32;;;;;;;;;;;19.70;93.70;;;;;;5094580;28;19908;-47
2021/07/14 07:31:57;;;;;;;;;;;19.70;93.70;;;;;;5093891;28;20264;-47
2021/07/14 07:34:23;;;;;;;;;;;19.60;93.70;;;;;;5093693;28;19956;-53
2021/07/14 07:36:49;;;;;;;;;;;19.70;93.80;;;;;;5094305;28;19904;-49
2021/07/14 07:39:14;;;;;;;;;;;19.70;93.80;;;;;;5093876;28;20002;-47
2021/07/14 07:41:40;;;;;;;;;;;19.60;93.50;;;;;;5093838;28;19979;-51
2021/07/14 07:44:06;;;;;;;;;;;19.60;93.70;;;;;;5093879;28;19911;-50
2021/07/14 07:46:32;;;;;;;;;;;19.70;94.00;;;;;;5093937;28;20279;-52
2021/07/14 07:48:58;;;;;;;;;;;19.60;93.40;;;;;;5094104;28;19905;-49
2021/07/14 07:51:23;;;;;;;;;;;19.70;93.60;;;;;;5094463;28;19911;-47
2021/07/14 07:53:49;;;;;;;;;;;19.60;93.90;;;;;;5093593;28;19908;-52
2021/07/14 07:56:15;;;;;;;;;;;19.60;93.60;;;;;;5093621;28;20340;-47
2021/07/14 07:58:43;;;;;;;;;;;19.50;94.00;;;;;;5093381;28;19943;-48
2021/07/14 08:01:09;;;;;;;;;;;19.50;94.00;;;;;;5077111;28;19904;-52
2021/07/14 08:03:34;;;;;;;;;;;19.40;94.10;;;;;;5099830;28;19927;-48
2021/07/14 08:06:00;;;;;;;;;;;19.50;94.20;;;;;;5100451;28;19904;-49
2021/07/14 08:08:25;;;;;;;;;;;19.40;94.30;;;;;;5100221;28;20298;-48
2021/07/14 08:10:53;;;;;;;;;;;19.40;94.20;;;;;;5081889;28;19975;-51
2021/07/14 08:13:18;;;;;;;;;;;19.40;94.40;;;;;;5100474;28;19908;-47
2021/07/14 08:15:45;;;;;;;;;;;19.30;94.40;;;;;;5065411;28;20336;-48
2021/07/14 08:18:10;;;;;;;;;;;19.30;94.50;;;;;;5100295;28;19987;-48
2021/07/14 08:20:36;;;;;;;;;;;19.40;94.50;;;;;;5100432;28;19962;-49
2021/07/14 08:23:02;;;;;;;;;;;19.40;94.50;;;;;;5100097;28;19992;-50
2021/07/14 08:25:27;;;;;;;;;;;19.40;94.50;;;;;;5100175;28;19904;-50
2021/07/14 08:27:53;;;;;;;;;;;19.40;94.50;;;;;;5100206;28;19943;-48
2021/07/14 08:30:18;;;;;;;;;;;19.50;94.50;;;;;;5100069;28;20251;-48
2021/07/14 08:32:44;;;;;;;;;;;19.50;94.50;;;;;;5100145;28;19954;-48
2021/07/14 08:35:10;;;;;;;;;;;19.50;94.50;;;;;;5081437;28;19916;-47
2021/07/14 08:37:36;;;;;;;;;;;19.30;94.50;;;;;;5100038;28;19904;-48
2021/07/14 08:40:03;;;;;;;;;;;19.40;94.90;;;;;;5099954;28;20337;-48
2021/07/14 08:42:29;;;;;;;;;;;19.40;94.50;;;;;;5099874;28;20282;-47
2021/07/14 08:44:54;;;;;;;;;;;19.40;94.40;;;;;;5099569;28;19904;-47
2021/07/14 08:47:21;;;;;;;;;;;19.30;94.60;;;;;;5099646;28;19904;-51
2021/07/14 08:49:48;;;;;;;;;;;19.30;94.50;;;;;;5099593;28;19904;-50
2021/07/14 08:52:14;;;;;;;;;;;19.30;94.80;;;;;;5081462;28;19947;-48
2021/07/14 08:54:43;;;;;;;;;;;19.30;94.50;;;;;;5099782;28;19973;-50
2021/07/14 08:57:21;;;;;;;;;;;19.30;94.80;;;;;;5112893;28;19912;-40
2021/07/14 08:59:47;;;;;;;;;;;19.40;94.90;;;;;;5100055;28;19926;-37
2021/07/14 09:02:13;;;;;;;;;;;19.40;94.90;;;;;;5099804;28;19986;-37
2021/07/14 09:04:39;;;;;;;;;;;19.50;94.40;;;;;;5099720;28;20272;-37
2021/07/14 09:07:05;;;;;;;;;;;19.50;94.50;;;;;;5081474;28;19954;-36
2021/07/14 09:09:31;;;;;;;;;;;19.50;94.50;;;;;;5099954;28;20062;-37
2021/07/14 09:11:58;;;;;;;;;;;19.50;94.20;;;;;;5099865;28;19904;-37
2021/07/14 09:14:30;;;;;;;;;;;19.50;94.30;;;;;;5097179;28;20300;-37
2021/07/14 09:16:57;;;;;;;;;;;19.50;94.30;;;;;;5096500;28;19908;-37
2021/07/14 09:19:30;;;;;;;;;;;19.50;94.10;;;;;;5096173;28;20359;-37
2021/07/14 09:21:56;;;;;;;;;;;19.50;94.30;;;;;;5096152;28;19904;-37
2021/07/14 09:24:32;;;;;;;;;;;19.50;94.30;;;;;;5096160;28;20061;-37
2021/07/14 09:26:59;;;;;;;;;;;19.60;94.40;;;;;;5096492;28;19900;-37
2021/07/14 09:29:24;;;;;;;;;;;19.70;94.20;;;;;;5096891;28;19984;-37
2021/07/14 09:31:50;;;;;;;;;;;19.70;93.90;;;;;;5096285;28;20309;-37
2021/07/14 09:34:25;;;;;;;;;;;19.70;93.80;;;;;;5096302;28;20317;-37
2021/07/14 09:36:54;;;;;;;;;;;19.80;93.80;;;;;;5096690;28;19904;-38
2021/07/14 09:39:40;;;;;;;;;;;19.70;93.80;;;;;;5096034;28;19904;-36
2021/07/14 09:42:09;;;;;;;;;;;19.70;93.90;;;;;;5095813;28;19965;-37
2021/07/14 09:44:43;;;;;;;;;;;19.80;93.50;;;;;;5095930;28;19904;-37
2021/07/14 09:47:16;;;;;;;;;;;19.80;93.90;;;;;;5077598;28;19904;-37
2021/07/14 09:49:42;;;;;;;;;;;19.80;93.10;;;;;;5095838;28;19907;-38
2021/07/14 09:52:21;;;;;;;;;;;19.80;93.20;;;;;;5095653;28;19910;-37
2021/07/14 09:54:47;;;;;;;;;;;19.80;93.00;;;;;;5095708;28;19919;-37
2021/07/14 09:57:12;;;;;;;;;;;19.80;93.40;;;;;;5095665;28;19997;-37
2021/07/14 09:59:38;;;;;;;;;;;19.90;93.60;;;;;;5077403;28;19916;-37
2021/07/14 10:02:04;;;;;;;;;;;20.00;93.30;;;;;;5077093;28;19904;-37
2021/07/14 10:04:33;;;;;;;;;;;20.00;92.90;;;;;;5095386;28;19911;-37
2021/07/14 10:07:09;;;;;;;;;;;20.00;92.90;;;;;;5095078;28;19954;-37
2021/07/14 10:09:35;;;;;;;;;;;20.00;93.10;;;;;;5077372;28;19904;-38
2021/07/14 10:12:19;;;;;;;;;;;20.00;93.00;;;;;;5076894;28;19908;-37
2021/07/14 10:14:45;;;;;;;;;;;20.00;93.30;;;;;;5095014;28;20309;-36
2021/07/14 10:17:10;;;;;;;;;;;20.00;93.00;;;;;;5077128;28;19904;-37
2021/07/14 10:19:36;;;;;;;;;;;20.00;92.50;;;;;;5095638;28;19953;-37
2021/07/14 10:22:01;;;;;;;;;;;20.00;92.50;;;;;;5077068;28;20348;-37
2021/07/14 10:24:27;;;;;;;;;;;20.00;92.90;;;;;;5095198;28;19912;-37
2021/07/14 10:26:53;;;;;;;;;;;20.00;92.70;;;;;;5077637;28;19927;-36
2021/07/14 10:29:19;;;;;;;;;;;20.00;92.60;;;;;;5094930;28;19904;-38
2021/07/14 10:31:49;;;;;;;;;;;20.10;92.20;;;;;;5094830;28;19911;-36
2021/07/14 10:34:15;;;;;;;;;;;20.20;92.30;;;;;;5094780;28;19908;-38
2021/07/14 10:36:41;;;;;;;;;;;20.20;92.00;;;;;;5095038;28;20275;-36
2021/07/14 10:39:09;;;;;;;;;;;20.30;92.00;;;;;;5094794;28;19986;-36
2021/07/14 10:41:34;;;;;;;;;;;20.40;92.00;;;;;;5094677;28;19904;-40
2021/07/14 10:44:01;;;;;;;;;;;20.30;91.80;;;;;;5094712;28;19954;-37
2021/07/14 10:46:29;;;;;;;;;;;20.30;91.90;;;;;;5095402;28;20259;-36
2021/07/14 10:48:56;;;;;;;;;;;20.20;92.00;;;;;;5094866;28;20367;-36
2021/07/14 10:51:23;;;;;;;;;;;20.20;92.10;;;;;;5096135;28;19976;-36
2021/07/14 10:54:00;;;;;;;;;;;20.20;92.00;;;;;;5094845;28;19907;-36
2021/07/14 10:56:29;;;;;;;;;;;20.30;91.90;;;;;;5077045;28;20403;-36
2021/07/14 10:58:55;;;;;;;;;;;20.20;91.90;;;;;;5094790;28;19908;-37
2021/07/14 11:01:40;;;;;;;;;;;20.30;91.90;;;;;;5094364;28;19938;-37
2021/07/14 11:04:10;;;;;;;;;;;20.20;92.50;;;;;;5094390;28;20358;-36
2021/07/14 11:06:52;;;;;;;;;;;20.30;92.20;;;;;;5094624;28;19904;-36
2021/07/14 11:09:47;;;;;;;;;;;20.30;91.70;;;;;;5076054;28;19904;-37
2021/07/14 11:12:27;;;;;;;;;;;20.40;91.80;;;;;;5054631;28;19904;-41
2021/07/14 11:14:57;;;;;;;;;;;20.50;91.10;;;;;;5094378;28;20021;-38
2021/07/14 11:17:29;;;;;;;;;;;20.30;91.70;;;;;;5094044;28;19976;-37
2021/07/14 11:19:55;;;;;;;;;;;20.30;91.70;;;;;;5094073;28;19904;-37
2021/07/14 11:22:40;;;;;;;;;;;20.50;91.40;;;;;;5075692;28;19904;-36
2021/07/14 11:25:07;;;;;;;;;;;20.40;91.30;;;;;;5093754;28;19904;-36
2021/07/14 11:27:35;;;;;;;;;;;20.50;91.10;;;;;;5093880;28;19994;-36
2021/07/14 11:30:03;;;;;;;;;;;20.70;90.00;;;;;;5093854;28;19904;-37
2021/07/14 11:32:35;;;;;;;;;;;20.70;90.70;;;;;;5093873;28;20283;-36
2021/07/14 11:35:00;;;;;;;;;;;20.60;90.70;;;;;;5093250;28;19920;-37
2021/07/14 11:37:33;;;;;;;;;;;21.00;89.40;;;;;;5092929;28;19949;-37
2021/07/14 11:40:17;;;;;;;;;;;21.00;89.40;;;;;;5093630;28;19904;-37
2021/07/14 11:42:54;;;;;;;;;;;21.20;88.50;;;;;;5093594;28;19943;-45
2021/07/14 11:45:33;;;;;;;;;;;21.10;88.90;;;;;;5093923;28;20271;-42
2021/07/14 11:48:02;;;;;;;;;;;21.20;89.00;;;;;;5094246;28;19938;-37
2021/07/14 11:50:42;;;;;;;;;;;21.30;88.60;;;;;;5093398;28;19908;-38
2021/07/14 11:53:39;;;;;;;;;;;21.30;88.80;;;;;;5093550;28;19947;-37
2021/07/14 11:56:10;;;;;;;;;;;21.30;88.50;;;;;;5093432;28;19911;-37
2021/07/14 11:58:42;;;;;;;;;;;21.70;87.40;;;;;;5093430;28;19939;-37
2021/07/14 12:01:30;;;;;;;;;;;21.70;87.20;;;;;;5093797;28;20411;-37
2021/07/14 12:04:02;;;;;;;;;;;21.80;87.10;;;;;;5079943;28;19936;-38
2021/07/14 12:06:34;;;;;;;;;;;21.80;86.50;;;;;;5075162;28;19904;-37
2021/07/14 12:09:00;;;;;;;;;;;21.90;86.40;;;;;;5093839;28;19911;-37
2021/07/14 12:11:25;;;;;;;;;;;22.00;86.00;;;;;;5094241;28;20451;-38
2021/07/14 12:13:51;;;;;;;;;;;22.00;86.00;;;;;;5093344;28;20014;-38
2021/07/14 12:16:35;;;;;;;;;;;22.20;85.40;;;;;;5093095;28;19904;-38
2021/07/14 12:19:00;;;;;;;;;;;22.10;86.30;;;;;;5093311;28;19911;-38
2021/07/14 12:21:36;;;;;;;;;;;21.90;87.00;;;;;;5093329;28;19912;-36
2021/07/14 12:24:02;;;;;;;;;;;22.00;86.40;;;;;;5093249;28;19908;-37
2021/07/14 12:26:27;;;;;;;;;;;21.90;86.40;;;;;;5093388;28;19904;-37
2021/07/14 12:28:53;;;;;;;;;;;21.70;86.90;;;;;;5093407;28;20373;-36
2021/07/14 12:31:19;;;;;;;;;;;21.80;87.20;;;;;;5094208;28;19904;-37
2021/07/14 12:33:54;;;;;;;;;;;21.70;87.40;;;;;;5093224;28;19955;-37
2021/07/14 12:36:20;;;;;;;;;;;21.70;87.60;;;;;;5093233;28;19916;-37
2021/07/14 12:38:56;;;;;;;;;;;21.80;87.40;;;;;;5093204;28;19983;-36
2021/07/14 12:41:29;;;;;;;;;;;21.80;86.90;;;;;;5093578;28;19907;-37
2021/07/14 12:44:06;;;;;;;;;;;21.70;87.70;;;;;;5093692;28;19927;-36
2021/07/14 12:46:32;;;;;;;;;;;21.80;87.50;;;;;;5093131;28;19908;-38
2021/07/14 12:49:10;;;;;;;;;;;21.70;88.10;;;;;;5096088;28;19904;-36
2021/07/14 12:51:35;;;;;;;;;;;21.60;88.40;;;;;;5096816;28;19942;-36
2021/07/14 12:54:01;;;;;;;;;;;21.70;88.40;;;;;;5096588;28;19963;-36
2021/07/14 12:56:27;;;;;;;;;;;21.70;88.30;;;;;;5097087;28;19904;-36
2021/07/14 12:59:00;;;;;;;;;;;21.70;88.40;;;;;;5096577;28;19904;-37
2021/07/14 13:01:26;;;;;;;;;;;21.80;88.00;;;;;;5078925;28;20034;-37
2021/07/14 13:03:51;;;;;;;;;;;21.80;88.00;;;;;;5097290;28;19915;-37
2021/07/14 13:06:18;;;;;;;;;;;21.70;88.40;;;;;;5096975;28;19904;-46
2021/07/14 13:08:48;;;;;;;;;;;21.70;88.00;;;;;;5096560;28;19904;-38
2021/07/14 13:11:14;;;;;;;;;;;21.60;88.30;;;;;;5097271;28;20312;-36
2021/07/14 13:13:40;;;;;;;;;;;21.60;88.50;;;;;;5096427;28;19958;-36
2021/07/14 13:16:07;;;;;;;;;;;21.80;88.10;;;;;;5097358;28;19904;-37
2021/07/14 13:18:37;;;;;;;;;;;21.90;88.00;;;;;;5078401;28;19904;-37
2021/07/14 13:21:03;;;;;;;;;;;22.20;86.50;;;;;;5096419;28;19904;-37
2021/07/14 13:23:32;;;;;;;;;;;22.10;86.80;;;;;;5096837;28;20335;-37
2021/07/14 13:25:58;;;;;;;;;;;22.10;86.80;;;;;;5096565;28;19904;-36
2021/07/14 13:28:30;;;;;;;;;;;22.00;87.00;;;;;;5096185;28;19911;-44
2021/07/14 13:30:57;;;;;;;;;;;21.90;87.40;;;;;;5096084;28;19904;-37
2021/07/14 13:33:25;;;;;;;;;;;22.10;87.00;;;;;;5095916;28;19915;-36
2021/07/14 13:35:51;;;;;;;;;;;22.40;85.90;;;;;;5096012;28;20291;-37
2021/07/14 13:38:33;;;;;;;;;;;22.60;86.00;;;;;;5095962;28;19988;-36
2021/07/14 13:41:11;;;;;;;;;;;22.60;85.70;;;;;;5096388;28;19904;-37
2021/07/14 13:43:50;;;;;;;;;;;22.30;86.40;;;;;;5095869;28;19912;-37
2021/07/14 13:46:28;;;;;;;;;;;22.30;86.90;;;;;;5095854;28;19911;-37
2021/07/14 13:48:55;;;;;;;;;;;22.30;86.90;;;;;;5096175;28;19927;-38
2021/07/14 13:51:29;;;;;;;;;;;22.30;86.60;;;;;;5096504;28;19999;-38
2021/07/14 13:53:55;;;;;;;;;;;22.30;86.60;;;;;;5095650;28;19915;-37
2021/07/14 13:56:30;;;;;;;;;;;22.60;85.90;;;;;;5095624;28;19914;-37
2021/07/14 13:59:16;;;;;;;;;;;22.50;85.30;;;;;;5096246;28;20038;-36
2021/07/14 14:01:52;;;;;;;;;;;22.50;86.10;;;;;;5096044;28;19943;-38
2021/07/14 14:04:17;;;;;;;;;;;22.30;86.20;;;;;;5095564;28;20315;-38
2021/07/14 14:06:46;;;;;;;;;;;22.20;86.90;;;;;;5095925;28;19961;-38
2021/07/14 14:09:18;;;;;;;;;;;22.20;87.30;;;;;;5096013;28;19908;-36
2021/07/14 14:11:44;;;;;;;;;;;22.20;87.50;;;;;;5095719;28;19904;-37
2021/07/14 14:14:10;;;;;;;;;;;22.30;87.10;;;;;;5077140;28;19973;-37
2021/07/14 14:16:35;;;;;;;;;;;22.10;86.90;;;;;;5095405;28;19987;-37
2021/07/14 14:19:01;;;;;;;;;;;22.00;88.00;;;;;;5077319;28;19908;-38
2021/07/14 14:21:26;;;;;;;;;;;21.80;88.50;;;;;;5095498;28;19904;-36
2021/07/14 14:23:56;;;;;;;;;;;21.90;88.00;;;;;;5095640;28;19911;-37
2021/07/14 14:26:26;;;;;;;;;;;21.90;88.00;;;;;;5095482;28;20309;-37
2021/07/14 14:28:52;;;;;;;;;;;21.80;88.50;;;;;;5094936;28;19915;-37